Porto Franco, Brazil
Current Conditions -  °F | °C
As of 6:00 PM on Saturday 22 Nov 2014 (Local Time) from SBIZ Reporting Station
Few Clouds Few Clouds  
Wind Chill: 93°   Ceiling: Unl
Heat Index: 103°   Visibility: 6mi
Dew Point: 73°   Wind: 3mph
Humidity: 52%   Direction: 240°WSW
Pressure: 29.74"   Gusts: NA
Location:  6.34°S, 47.4°W
Report Text: SBIZ 222100Z 24003KT 9999 FEW020 34/23 Q1007
Loading
Personal Weather Stations






























Interactive Weather Map New forecast layout! Learn more

10-Day Weather Forecast

Advertisements
Track Severe Weather on mobile